Time;durP1;ratioP1;P1;durP2;ratioP2;P2;SDS_P1;SDS_P2;PMS_P1;PMS_P2;Temp;Humidity;BMP_temperature;BMP_pressure;BME280_temperature;BME280_humidity;BME280_pressure;Samples;Min_cycle;Max_cycle;Signal;HPM_P1;HPM_P2
2023/08/31 00:02:19;;;;;;;9.85;3.88;;;11.20;99.90;;;;;;5038693;28;20082;-68
2023/08/31 00:04:51;;;;;;;7.50;3.70;;;11.20;99.90;;;;;;5054996;28;20059;-70
2023/08/31 00:07:17;;;;;;;7.95;3.95;;;11.20;99.90;;;;;;5055086;28;20133;-69
2023/08/31 00:09:42;;;;;;;11.85;3.92;;;11.20;99.90;;;;;;5038378;28;20076;-70
2023/08/31 00:12:08;;;;;;;10.13;4.10;;;11.10;99.90;;;;;;5055071;28;20101;-70
2023/08/31 00:14:34;;;;;;;6.75;3.58;;;11.10;99.90;;;;;;5055118;28;20039;-68
2023/08/31 00:16:59;;;;;;;10.00;4.13;;;11.10;99.90;;;;;;5034666;28;20520;-69
2023/08/31 00:19:35;;;;;;;8.25;4.00;;;11.10;99.90;;;;;;5035073;28;20052;-71
2023/08/31 00:22:12;;;;;;;7.15;3.22;;;11.10;99.90;;;;;;5051716;28;20049;-70
2023/08/31 00:24:38;;;;;;;8.50;3.70;;;11.10;99.90;;;;;;5051284;28;20045;-70
2023/08/31 00:27:06;;;;;;;9.00;3.20;;;11.10;99.90;;;;;;5036043;28;20056;-64
2023/08/31 00:29:32;;;;;;;8.80;3.80;;;11.00;99.90;;;;;;5056322;28;20048;-66
2023/08/31 00:31:58;;;;;;;8.07;3.20;;;11.00;99.90;;;;;;5056542;28;20037;-65
2023/08/31 00:34:33;;;;;;;11.30;3.38;;;11.00;99.90;;;;;;5055375;28;20088;-64
2023/08/31 00:36:59;;;;;;;6.70;2.92;;;11.00;99.90;;;;;;5056090;28;20093;-64
2023/08/31 00:39:24;;;;;;;9.60;2.85;;;11.00;99.90;;;;;;5055197;28;20552;-64
2023/08/31 00:41:56;;;;;;;7.07;3.15;;;11.10;99.90;;;;;;5038148;28;20125;-63
2023/08/31 00:44:24;;;;;;;7.97;3.07;;;11.10;99.90;;;;;;5021923;28;20052;-63
2023/08/31 00:46:51;;;;;;;5.95;3.25;;;11.10;99.90;;;;;;5038749;28;20131;-65
2023/08/31 00:49:17;;;;;;;7.63;3.50;;;11.00;99.90;;;;;;5055050;28;20052;-62
2023/08/31 00:51:48;;;;;;;9.55;3.80;;;11.00;99.90;;;;;;5054660;28;20048;-63
2023/08/31 00:54:18;;;;;;;9.20;3.63;;;10.90;99.90;;;;;;5054832;28;20037;-64
2023/08/31 00:56:44;;;;;;;11.65;4.55;;;10.90;99.90;;;;;;5056125;28;20091;-64
2023/08/31 00:59:10;;;;;;;7.30;3.80;;;10.90;99.90;;;;;;5038127;28;20036;-64
2023/08/31 01:01:59;;;;;;;11.48;4.00;;;10.90;99.90;;;;;;5038031;28;20118;-64
2023/08/31 01:04:38;;;;;;;9.23;3.45;;;10.90;99.90;;;;;;5055284;28;20135;-64
2023/08/31 01:07:33;;;;;;;10.65;4.95;;;10.90;99.90;;;;;;5053985;28;20057;-63
2023/08/31 01:10:04;;;;;;;8.63;3.90;;;10.90;99.90;;;;;;5027334;28;20049;-63
2023/08/31 01:12:55;;;;;;;10.38;3.85;;;11.00;99.90;;;;;;5038196;28;20044;-63
2023/08/31 01:15:21;;;;;;;10.05;3.33;;;11.00;99.90;;;;;;5055025;28;20080;-64
2023/08/31 01:17:54;;;;;;;10.45;4.00;;;11.00;99.90;;;;;;5057719;28;20048;-64
2023/08/31 01:20:38;;;;;;;8.15;3.53;;;11.00;99.90;;;;;;5057790;28;20071;-63
2023/08/31 01:23:13;;;;;;;12.55;3.13;;;11.10;99.90;;;;;;5075535;28;20036;-64
2023/08/31 01:25:42;;;;;;;7.57;3.40;;;11.10;99.90;;;;;;5057903;28;20127;-64
2023/08/31 01:28:10;;;;;;;9.68;3.67;;;11.10;99.90;;;;;;5041226;28;20036;-64
2023/08/31 01:30:35;;;;;;;8.70;3.25;;;11.00;99.90;;;;;;5057248;28;20045;-63
2023/08/31 01:33:02;;;;;;;8.65;2.55;;;11.00;99.90;;;;;;5057445;28;20044;-64
2023/08/31 01:35:46;;;;;;;8.63;3.60;;;11.00;99.90;;;;;;5057422;28;20044;-64
2023/08/31 01:38:16;;;;;;;7.95;3.40;;;11.00;99.90;;;;;;5057613;28;20033;-68
2023/08/31 01:41:00;;;;;;;9.43;3.85;;;10.90;99.90;;;;;;5057811;28;20127;-69
2023/08/31 01:43:27;;;;;;;9.88;3.20;;;10.90;99.90;;;;;;5076037;28;20051;-69
2023/08/31 01:45:54;;;;;;;7.13;2.78;;;10.80;99.90;;;;;;5058076;28;20045;-72
2023/08/31 01:48:20;;;;;;;8.75;2.97;;;10.80;99.90;;;;;;5057883;28;20508;-64
2023/08/31 01:50:46;;;;;;;8.65;2.97;;;10.80;99.90;;;;;;5023884;28;20040;-64
2023/08/31 01:53:12;;;;;;;8.93;3.90;;;10.80;99.90;;;;;;5057256;28;20145;-64
2023/08/31 01:55:38;;;;;;;7.28;3.35;;;10.80;99.90;;;;;;5040505;28;20067;-64
2023/08/31 01:58:04;;;;;;;8.13;3.15;;;10.80;99.90;;;;;;5057179;28;20098;-63
2023/08/31 02:00:34;;;;;;;12.60;4.65;;;10.80;99.90;;;;;;5056761;28;20077;-64
2023/08/31 02:03:00;;;;;;;9.32;3.80;;;10.70;99.90;;;;;;5056746;28;20051;-64
2023/08/31 02:05:26;;;;;;;10.20;4.80;;;10.70;99.90;;;;;;5074758;28;20046;-65
2023/08/31 02:07:52;;;;;;;12.02;5.55;;;10.70;99.90;;;;;;5056737;28;20119;-64
2023/08/31 02:10:27;;;;;;;8.05;3.30;;;10.70;99.90;;;;;;5056738;28;20553;-65
2023/08/31 02:12:53;;;;;;;8.00;3.30;;;10.70;99.90;;;;;;5056645;28;20049;-64
2023/08/31 02:15:18;;;;;;;6.40;2.75;;;10.70;99.90;;;;;;5056285;28;20062;-64
2023/08/31 02:17:45;;;;;;;7.43;2.90;;;10.70;99.90;;;;;;5056355;28;20055;-65
2023/08/31 02:20:24;;;;;;;7.93;4.28;;;10.70;99.90;;;;;;5023043;28;20413;-67
2023/08/31 02:22:50;;;;;;;9.50;4.80;;;10.70;99.90;;;;;;5039911;28;20090;-64
2023/08/31 02:25:27;;;;;;;11.10;5.72;;;10.80;99.90;;;;;;5039610;28;20044;-63
2023/08/31 02:27:54;;;;;;;10.15;4.70;;;10.70;99.90;;;;;;5056365;28;20492;-63
2023/08/31 02:30:19;;;;;;;8.02;3.63;;;10.70;99.90;;;;;;5056216;28;20438;-64
2023/08/31 02:32:45;;;;;;;6.85;3.80;;;10.70;99.90;;;;;;5056129;28;20037;-64
2023/08/31 02:35:12;;;;;;;7.97;3.80;;;10.60;99.90;;;;;;5056028;28;20048;-64
2023/08/31 02:37:41;;;;;;;9.70;4.75;;;10.70;99.90;;;;;;5056513;28;20040;-62
2023/08/31 02:40:10;;;;;;;7.78;4.43;;;10.70;99.90;;;;;;5040265;28;20056;-63
2023/08/31 02:42:36;;;;;;;9.20;4.70;;;10.70;99.90;;;;;;5056202;28;20040;-63
2023/08/31 02:45:02;;;;;;;11.02;5.25;;;10.70;99.90;;;;;;5073869;28;20089;-64
2023/08/31 02:47:28;;;;;;;8.68;4.70;;;10.70;99.90;;;;;;5056180;28;20047;-64
2023/08/31 02:49:54;;;;;;;10.27;5.75;;;10.80;99.90;;;;;;5055251;28;20037;-64
2023/08/31 02:52:21;;;;;;;10.70;4.68;;;10.80;99.90;;;;;;5039232;28;20089;-64
2023/08/31 02:54:49;;;;;;;10.65;5.18;;;10.80;99.90;;;;;;5039506;28;20047;-63
2023/08/31 02:57:19;;;;;;;9.23;5.00;;;10.90;99.90;;;;;;5055527;28;20040;-63
2023/08/31 02:59:52;;;;;;;12.52;8.50;;;10.90;99.90;;;;;;5073468;28;20032;-63
2023/08/31 03:02:22;;;;;;;12.10;6.72;;;10.90;99.90;;;;;;5055934;28;20094;-64
2023/08/31 03:04:55;;;;;;;11.65;7.70;;;10.90;99.90;;;;;;5055713;28;20059;-64
2023/08/31 03:07:21;;;;;;;13.60;7.45;;;10.90;99.90;;;;;;5055666;28;20078;-64
2023/08/31 03:09:50;;;;;;;13.40;7.13;;;10.80;99.90;;;;;;5073286;28;20415;-64
2023/08/31 03:12:16;;;;;;;10.73;6.88;;;10.80;99.90;;;;;;5038992;28;20119;-63
2023/08/31 03:14:42;;;;;;;11.68;6.60;;;10.70;99.90;;;;;;5039165;28;20120;-65
2023/08/31 03:17:08;;;;;;;10.63;6.88;;;10.70;99.90;;;;;;5051713;28;20497;-64
2023/08/31 03:19:33;;;;;;;13.73;7.55;;;10.70;99.90;;;;;;5068771;28;20052;-64
2023/08/31 03:22:06;;;;;;;12.20;7.80;;;10.70;99.90;;;;;;5052178;28;20041;-64
2023/08/31 03:24:33;;;;;;;11.27;6.97;;;10.60;99.90;;;;;;5035559;28;20436;-64
2023/08/31 03:26:58;;;;;;;10.43;7.07;;;10.60;99.90;;;;;;5051833;28;20049;-64
2023/08/31 03:29:24;;;;;;;13.93;10.85;;;10.50;99.90;;;;;;5035248;28;20504;-64
2023/08/31 03:31:50;;;;;;;12.70;9.00;;;10.60;99.90;;;;;;5052098;28;20037;-63
2023/08/31 03:34:16;;;;;;;12.80;9.70;;;10.50;99.90;;;;;;5035284;28;20049;-64
2023/08/31 03:36:41;;;;;;;13.25;10.18;;;10.50;99.90;;;;;;5035171;28;20041;-64
2023/08/31 03:39:26;;;;;;;13.18;9.48;;;10.50;99.90;;;;;;5051764;28;20088;-65
2023/08/31 03:41:55;;;;;;;13.35;9.82;;;10.50;99.90;;;;;;5068430;28;20045;-64
2023/08/31 03:44:21;;;;;;;13.15;10.23;;;10.40;99.90;;;;;;5035495;28;20400;-64
2023/08/31 03:47:05;;;;;;;12.95;10.65;;;10.40;99.90;;;;;;5051679;28;20037;-64
2023/08/31 03:49:34;;;;;;;13.10;9.80;;;10.40;99.90;;;;;;5035124;28;20052;-64
2023/08/31 03:52:06;;;;;;;16.08;11.63;;;10.40;99.90;;;;;;5051843;28;20052;-64
2023/08/31 03:54:32;;;;;;;15.25;12.73;;;10.50;99.90;;;;;;5051863;28;20126;-64
2023/08/31 03:56:58;;;;;;;13.07;11.02;;;10.50;99.90;;;;;;5051587;28;20497;-68
2023/08/31 03:59:25;;;;;;;14.32;11.00;;;10.50;99.90;;;;;;5034900;28;20052;-69
2023/08/31 04:01:50;;;;;;;12.18;8.82;;;10.60;99.90;;;;;;5054475;28;20040;-69
2023/08/31 04:04:16;;;;;;;13.88;11.30;;;10.60;99.90;;;;;;5055456;28;20051;-70
2023/08/31 04:06:42;;;;;;;15.95;11.40;;;10.60;99.90;;;;;;5022505;28;20047;-69
2023/08/31 04:09:08;;;;;;;13.75;9.98;;;10.70;99.90;;;;;;5055636;28;20463;-68
2023/08/31 04:11:34;;;;;;;11.73;9.57;;;10.70;99.90;;;;;;5039020;28;20098;-70
2023/08/31 04:14:01;;;;;;;13.80;10.00;;;10.70;99.90;;;;;;5038859;28;20040;-69
2023/08/31 04:16:30;;;;;;;11.13;8.77;;;10.70;99.90;;;;;;5055155;28;20059;-70
2023/08/31 04:19:02;;;;;;;11.30;9.07;;;10.70;99.90;;;;;;5056855;28;20477;-70
2023/08/31 04:21:28;;;;;;;10.98;9.35;;;10.70;99.90;;;;;;5055298;28;20140;-69
2023/08/31 04:23:59;;;;;;;12.27;8.85;;;10.70;99.90;;;;;;5038641;28;20566;-69
2023/08/31 04:26:25;;;;;;;9.50;8.13;;;10.70;99.90;;;;;;5038811;28;20049;-69
2023/08/31 04:28:51;;;;;;;12.65;9.60;;;10.70;99.90;;;;;;5038921;28;20424;-69
2023/08/31 04:31:20;;;;;;;13.90;10.25;;;10.70;99.90;;;;;;5055050;28;20037;-70
2023/08/31 04:33:48;;;;;;;12.63;10.15;;;10.70;99.90;;;;;;5038647;28;20103;-69
2023/08/31 04:36:23;;;;;;;13.25;10.38;;;10.70;99.90;;;;;;5038875;28;20059;-69
2023/08/31 04:38:52;;;;;;;13.73;9.90;;;10.70;99.90;;;;;;5023083;28;20386;-69
2023/08/31 04:41:21;;;;;;;11.10;8.93;;;10.80;99.90;;;;;;5056524;28;20485;-69
2023/08/31 04:43:47;;;;;;;11.40;9.52;;;10.80;99.90;;;;;;5038171;28;20052;-70
2023/08/31 04:46:14;;;;;;;10.63;8.35;;;10.80;99.90;;;;;;5054835;28;20048;-69
2023/08/31 04:48:39;;;;;;;10.48;8.95;;;10.80;99.90;;;;;;5055066;28;20041;-70
2023/08/31 04:51:05;;;;;;;11.73;9.55;;;10.80;99.90;;;;;;5054616;28;20044;-70
2023/08/31 04:53:31;;;;;;;14.20;9.77;;;10.80;99.90;;;;;;5021883;28;20033;-69
2023/08/31 04:55:57;;;;;;;11.90;8.35;;;10.80;99.90;;;;;;5022100;28;20090;-69
2023/08/31 04:58:23;;;;;;;12.50;9.20;;;10.80;99.90;;;;;;5055694;28;20052;-69
2023/08/31 05:00:49;;;;;;;10.85;8.80;;;10.90;99.90;;;;;;5054636;28;20124;-69
2023/08/31 05:03:15;;;;;;;12.32;9.20;;;10.80;99.90;;;;;;5021461;28;20170;-69
2023/08/31 05:05:43;;;;;;;12.63;9.63;;;10.90;99.90;;;;;;5037694;28;20045;-68
2023/08/31 05:08:10;;;;;;;10.75;8.18;;;10.90;99.90;;;;;;5054752;28;20408;-69
2023/08/31 05:10:37;;;;;;;11.35;7.88;;;10.90;99.90;;;;;;5037758;28;20045;-69
2023/08/31 05:13:04;;;;;;;12.63;9.30;;;10.90;99.90;;;;;;5054943;28;20037;-69
2023/08/31 05:15:30;;;;;;;9.95;7.68;;;10.90;99.90;;;;;;5054532;28;20041;-69
2023/08/31 05:17:59;;;;;;;9.98;6.53;;;10.90;99.90;;;;;;5038107;28;20056;-69
2023/08/31 05:20:24;;;;;;;12.02;7.32;;;11.00;99.90;;;;;;5054142;28;20049;-69
2023/08/31 05:22:51;;;;;;;9.40;6.63;;;11.00;99.90;;;;;;5054410;28;20124;-70
2023/08/31 05:25:17;;;;;;;11.20;7.47;;;11.00;99.90;;;;;;5070876;28;20474;-69
2023/08/31 05:27:43;;;;;;;12.02;7.10;;;11.00;99.90;;;;;;5054304;28;20090;-69
2023/08/31 05:30:09;;;;;;;11.27;6.88;;;11.00;99.90;;;;;;5054193;28;20370;-69
2023/08/31 05:32:34;;;;;;;9.40;6.75;;;11.00;99.90;;;;;;5053920;28;20037;-69
2023/08/31 05:35:00;;;;;;;9.00;6.20;;;11.00;99.90;;;;;;5037407;28;20074;-70
2023/08/31 05:37:26;;;;;;;9.38;6.28;;;11.10;99.90;;;;;;5053911;28;20036;-69
2023/08/31 05:39:52;;;;;;;10.52;5.90;;;11.10;99.90;;;;;;5037356;28;20048;-70
2023/08/31 05:42:18;;;;;;;9.90;6.20;;;11.20;99.90;;;;;;5054963;28;20032;-69
2023/08/31 05:44:44;;;;;;;10.13;6.50;;;11.30;99.90;;;;;;5053768;28;20044;-68
2023/08/31 05:47:10;;;;;;;10.60;6.43;;;11.30;99.90;;;;;;5037058;28;20049;-69
2023/08/31 05:49:36;;;;;;;12.07;7.75;;;11.40;99.90;;;;;;5037032;28;20033;-69
2023/08/31 05:52:02;;;;;;;11.55;7.07;;;11.40;99.90;;;;;;5053602;28;20047;-70
2023/08/31 05:54:28;;;;;;;12.40;6.68;;;11.40;99.90;;;;;;5037042;28;20045;-69
2023/08/31 05:56:54;;;;;;;13.93;6.25;;;11.50;99.90;;;;;;5054942;28;20059;-70
2023/08/31 05:59:21;;;;;;;10.35;6.35;;;11.50;99.90;;;;;;5053757;28;20044;-70
2023/08/31 06:01:49;;;;;;;11.40;6.90;;;11.60;99.90;;;;;;5036988;28;20055;-69
2023/08/31 06:04:18;;;;;;;9.13;5.70;;;11.60;99.90;;;;;;5053285;28;20045;-70
2023/08/31 06:06:44;;;;;;;10.38;7.18;;;11.70;99.90;;;;;;5053289;28;20084;-69
2023/08/31 06:09:13;;;;;;;11.80;8.18;;;11.90;99.90;;;;;;5037006;28;20083;-69
2023/08/31 06:11:40;;;;;;;11.02;7.20;;;12.60;99.90;;;;;;5037268;28;20063;-69
2023/08/31 06:14:09;;;;;;;8.55;5.28;;;12.80;99.90;;;;;;5021048;28;20045;-69
2023/08/31 06:16:38;;;;;;;9.10;4.72;;;13.10;99.90;;;;;;5053094;28;20109;-63
2023/08/31 06:19:05;;;;;;;8.52;4.50;;;13.50;99.90;;;;;;5053296;28;20091;-65
2023/08/31 06:21:31;;;;;;;9.77;5.10;;;13.70;99.90;;;;;;5054618;28;20094;-68
2023/08/31 06:23:57;;;;;;;7.13;3.50;;;13.90;99.90;;;;;;5052476;28;20040;-65
2023/08/31 06:26:25;;;;;;;6.45;4.03;;;14.20;99.90;;;;;;5054002;28;20037;-64
2023/08/31 06:28:51;;;;;;;7.07;3.45;;;14.90;99.90;;;;;;5036777;28;20081;-69
2023/08/31 06:31:18;;;;;;;8.15;2.92;;;15.50;99.90;;;;;;5036428;28;20072;-70
2023/08/31 06:33:43;;;;;;;7.90;3.53;;;15.90;99.90;;;;;;5036542;28;20563;-70
2023/08/31 06:36:09;;;;;;;6.78;3.00;;;15.80;99.90;;;;;;5054291;28;20078;-70
2023/08/31 06:38:35;;;;;;;7.00;3.42;;;16.00;99.90;;;;;;5053990;28;20447;-65
2023/08/31 06:41:04;;;;;;;5.60;2.92;;;15.90;99.90;;;;;;5053800;28;20048;-64
2023/08/31 06:43:33;;;;;;;7.75;2.85;;;15.90;99.90;;;;;;5052997;28;20119;-64
2023/08/31 06:45:59;;;;;;;7.28;2.60;;;16.30;99.90;;;;;;5052576;28;20041;-64
2023/08/31 06:48:25;;;;;;;6.65;2.80;;;16.60;99.90;;;;;;5036365;28;20041;-64
2023/08/31 06:50:50;;;;;;;6.88;2.67;;;17.20;99.90;;;;;;5054002;28;20044;-64
2023/08/31 06:53:16;;;;;;;6.57;3.28;;;17.50;99.90;;;;;;5052349;28;20051;-64
2023/08/31 06:55:42;;;;;;;7.72;2.53;;;17.30;99.90;;;;;;5052338;28;20045;-63
2023/08/31 06:58:08;;;;;;;6.13;2.63;;;17.10;99.90;;;;;;5035990;28;20543;-63
2023/08/31 07:00:42;;;;;;;6.15;2.15;;;17.20;99.90;;;;;;5035985;28;20033;-63
2023/08/31 07:03:08;;;;;;;6.15;2.67;;;17.50;99.90;;;;;;5036137;28;20036;-63
2023/08/31 07:05:41;;;;;;;5.97;2.53;;;17.60;99.90;;;;;;5069068;28;20538;-63
2023/08/31 07:08:10;;;;;;;7.47;2.60;;;17.70;99.90;;;;;;5053404;28;20059;-64
2023/08/31 07:10:39;;;;;;;6.93;2.60;;;17.90;99.90;;;;;;5052931;28;20061;-64
2023/08/31 07:13:05;;;;;;;6.30;2.25;;;18.00;99.90;;;;;;5052060;28;20471;-63
2023/08/31 07:15:31;;;;;;;5.60;2.20;;;17.90;99.90;;;;;;5018954;28;20099;-65
2023/08/31 07:17:57;;;;;;;8.75;2.80;;;18.30;99.90;;;;;;5052069;28;20052;-65
2023/08/31 07:20:23;;;;;;;6.15;2.20;;;18.40;99.90;;;;;;5051893;28;20052;-63
2023/08/31 07:22:49;;;;;;;6.60;2.30;;;18.40;99.90;;;;;;5051914;28;20040;-63
2023/08/31 07:25:15;;;;;;;5.63;2.10;;;18.20;99.90;;;;;;5035614;28;20037;-63
2023/08/31 07:27:41;;;;;;;6.53;2.20;;;18.40;99.90;;;;;;5052196;28;20496;-69
2023/08/31 07:30:13;;;;;;;5.78;2.10;;;18.80;99.90;;;;;;5052173;28;20570;-69
2023/08/31 07:32:38;;;;;;;;;;;18.70;99.90;;;;;;5052226;28;20037;-69
2023/08/31 07:35:04;;;;;;;5.70;2.30;;;18.90;99.90;;;;;;5051651;28;19917;-69
2023/08/31 07:37:37;;;;;;;6.57;2.30;;;18.80;99.90;;;;;;5051555;28;20041;-69
2023/08/31 07:40:06;;;;;;;6.32;2.08;;;18.80;99.90;;;;;;5052238;28;20037;-68
2023/08/31 07:42:34;;;;;;;5.90;2.43;;;18.50;99.90;;;;;;5052133;28;20382;-69
2023/08/31 07:45:00;;;;;;;6.50;2.10;;;18.50;99.90;;;;;;5052088;28;20382;-70
2023/08/31 07:47:25;;;;;;;6.38;1.98;;;18.50;99.90;;;;;;5052906;28;20094;-69
2023/08/31 07:49:51;;;;;;;6.40;2.20;;;18.40;99.90;;;;;;5051892;28;20090;-68
2023/08/31 07:52:17;;;;;;;5.97;2.20;;;18.40;99.90;;;;;;5051679;28;20094;-69
2023/08/31 07:54:42;;;;;;;7.63;2.10;;;18.40;99.90;;;;;;5035166;28;20041;-69
2023/08/31 07:57:08;;;;;;;6.90;1.80;;;18.80;99.90;;;;;;5016534;28;20079;-69
2023/08/31 07:59:43;;;;;;;6.65;1.98;;;18.80;99.90;;;;;;5030080;28;20052;-69
2023/08/31 08:02:09;;;;;;;5.78;1.70;;;19.00;99.90;;;;;;5053092;28;20393;-69
2023/08/31 08:04:34;;;;;;;5.43;1.70;;;18.90;99.90;;;;;;5053011;28;20037;-69
2023/08/31 08:07:03;;;;;;;6.00;1.85;;;19.20;99.90;;;;;;5051489;28;20071;-70
2023/08/31 08:09:29;;;;;;;5.00;1.60;;;19.30;99.90;;;;;;5051786;28;20080;-68
2023/08/31 08:11:56;;;;;;;5.85;1.60;;;19.30;99.90;;;;;;5035074;28;20045;-70
2023/08/31 08:14:22;;;;;;;5.60;1.63;;;19.40;99.90;;;;;;5052746;28;20072;-70
2023/08/31 08:16:47;;;;;;;4.93;1.50;;;19.40;99.90;;;;;;5068045;28;20057;-70
2023/08/31 08:19:13;;;;;;;5.47;1.50;;;19.40;99.90;;;;;;5051379;28;20398;-69
2023/08/31 08:21:39;;;;;;;8.30;1.60;;;19.10;99.90;;;;;;5051384;28;20113;-69
2023/08/31 08:24:11;;;;;;;6.95;1.60;;;19.10;99.90;;;;;;5034709;28;20045;-68
2023/08/31 08:26:37;;;;;;;5.13;1.50;;;19.20;99.90;;;;;;5048764;28;20159;-69
2023/08/31 08:29:02;;;;;;;6.30;1.38;;;19.10;99.90;;;;;;5051258;28;20081;-69
2023/08/31 08:31:28;;;;;;;6.68;1.55;;;18.90;99.90;;;;;;5034617;28;20444;-69
2023/08/31 08:33:54;;;;;;;6.63;1.63;;;19.00;99.90;;;;;;5052600;28;20044;-69
2023/08/31 08:36:20;;;;;;;5.55;1.65;;;19.00;99.90;;;;;;5034652;28;20095;-70
2023/08/31 08:38:49;;;;;;;6.85;1.40;;;18.80;99.90;;;;;;5051234;28;20041;-66
2023/08/31 08:41:19;;;;;;;7.18;1.77;;;18.70;99.90;;;;;;5034864;28;20570;-65
2023/08/31 08:43:47;;;;;;;5.50;1.30;;;18.60;99.90;;;;;;5035081;28;20047;-65
2023/08/31 08:46:13;;;;;;;5.32;1.38;;;18.70;99.90;;;;;;5051322;28;20053;-64
2023/08/31 08:48:40;;;;;;;4.68;1.50;;;18.70;99.90;;;;;;5053324;28;20073;-63
2023/08/31 08:51:07;;;;;;;5.80;1.40;;;18.40;99.90;;;;;;5054705;28;20045;-64
2023/08/31 08:53:34;;;;;;;5.82;1.40;;;18.30;99.90;;;;;;5054926;28;20076;-63
2023/08/31 08:56:00;;;;;;;5.63;1.60;;;18.40;99.90;;;;;;5056374;28;20045;-67
2023/08/31 08:58:31;;;;;;;6.22;1.40;;;18.50;99.90;;;;;;5054579;28;20044;-66
2023/08/31 09:01:00;;;;;;;6.90;1.38;;;18.70;99.90;;;;;;5038982;28;20049;-65
2023/08/31 09:03:25;;;;;;;5.47;1.40;;;18.70;99.90;;;;;;5056146;28;20045;-66
2023/08/31 09:05:54;;;;;;;6.55;1.42;;;18.80;99.90;;;;;;5054400;28;20041;-64
2023/08/31 09:08:27;;;;;;;6.07;1.20;;;18.70;99.90;;;;;;5057118;28;20075;-65
2023/08/31 09:10:57;;;;;;;4.47;1.02;;;18.50;99.90;;;;;;5058653;28;20090;-65
2023/08/31 09:13:29;;;;;;;5.50;1.40;;;18.60;99.90;;;;;;5056649;28;20041;-65
2023/08/31 09:15:58;;;;;;;3.42;1.00;;;18.70;99.90;;;;;;5055342;28;20073;-63
2023/08/31 09:18:29;;;;;;;5.70;1.20;;;18.70;99.90;;;;;;5073669;28;20068;-64
2023/08/31 09:20:58;;;;;;;3.97;1.00;;;18.50;99.90;;;;;;5076389;28;20075;-63
2023/08/31 09:23:25;;;;;;;5.53;0.95;;;18.10;99.90;;;;;;5042342;28;20377;-65
2023/08/31 09:25:55;;;;;;;4.35;1.00;;;17.80;99.90;;;;;;5076371;28;20040;-63
2023/08/31 09:28:28;;;;;;;2.42;0.70;;;17.60;99.90;;;;;;5058286;28;20037;-64
2023/08/31 09:31:08;;;;;;;3.03;0.73;;;17.20;99.90;;;;;;5074854;28;20161;-65
2023/08/31 09:33:37;;;;;;;3.33;0.70;;;16.90;99.90;;;;;;5050981;28;20040;-65
2023/08/31 09:36:05;;;;;;;3.78;0.80;;;16.60;99.90;;;;;;5055811;28;20053;-64
2023/08/31 09:38:31;;;;;;;4.18;0.80;;;16.50;99.90;;;;;;5038110;28;20405;-64
2023/08/31 09:41:06;;;;;;;3.00;0.80;;;16.20;99.90;;;;;;5020868;28;20133;-64
2023/08/31 09:43:32;;;;;;;3.83;0.93;;;16.30;99.90;;;;;;5037830;28;20071;-65
2023/08/31 09:45:59;;;;;;;2.60;0.80;;;16.50;99.90;;;;;;5037460;28;20041;-63
2023/08/31 09:48:29;;;;;;;4.90;0.90;;;16.80;99.90;;;;;;5037355;28;20049;-64
2023/08/31 09:50:56;;;;;;;3.60;1.00;;;17.00;99.90;;;;;;5037060;28;20099;-64
2023/08/31 09:53:25;;;;;;;3.85;1.00;;;17.00;99.90;;;;;;5037414;28;20392;-64
2023/08/31 09:55:52;;;;;;;3.38;0.93;;;17.00;99.90;;;;;;5054870;28;20064;-63
2023/08/31 09:58:20;;;;;;;4.13;1.00;;;17.10;99.90;;;;;;5036787;28;20059;-64
2023/08/31 10:00:48;;;;;;;3.42;0.90;;;17.20;99.90;;;;;;5036829;28;20048;-64
2023/08/31 10:03:15;;;;;;;4.18;1.00;;;17.20;99.90;;;;;;5037055;28;20052;-63
2023/08/31 10:05:43;;;;;;;4.50;1.10;;;17.10;99.90;;;;;;5053482;28;20094;-63
2023/08/31 10:08:09;;;;;;;5.03;1.00;;;17.20;99.90;;;;;;5036584;28;20045;-63
2023/08/31 10:10:41;;;;;;;6.93;1.20;;;17.20;99.90;;;;;;5036832;28;20121;-64
2023/08/31 10:13:08;;;;;;;4.32;1.10;;;17.30;99.90;;;;;;5036752;28;20048;-64
2023/08/31 10:15:37;;;;;;;3.97;1.00;;;17.30;99.90;;;;;;5053549;28;20493;-65
2023/08/31 10:18:05;;;;;;;5.15;1.10;;;17.50;99.90;;;;;;5033200;28;20053;-64
2023/08/31 10:20:33;;;;;;;4.30;1.05;;;17.70;99.90;;;;;;5034747;28;20054;-64
2023/08/31 10:23:05;;;;;;;3.22;0.90;;;17.80;99.90;;;;;;5033435;28;20424;-64
2023/08/31 10:25:45;;;;;;;3.78;0.90;;;17.90;99.90;;;;;;5033093;28;20122;-64
2023/08/31 10:28:25;;;;;;;5.10;1.20;;;17.90;99.90;;;;;;5033000;28;20095;-63
2023/08/31 10:31:10;;;;;;;3.58;0.82;;;18.00;99.90;;;;;;5032961;28;20073;-64
2023/08/31 10:33:43;;;;;;;3.70;0.90;;;18.40;99.90;;;;;;5033271;28;20033;-63
2023/08/31 10:36:16;;;;;;;5.70;1.05;;;18.80;99.90;;;;;;5049431;28;20037;-63
2023/08/31 10:38:46;;;;;;;2.83;0.85;;;19.20;99.90;;;;;;5033003;28;20454;-64
2023/08/31 10:41:11;;;;;;;4.38;0.95;;;19.50;99.90;;;;;;5033007;28;20095;-63
2023/08/31 10:44:04;;;;;;;3.90;1.00;;;19.70;99.90;;;;;;5033936;28;20042;-63
2023/08/31 10:46:35;;;;;;;4.30;0.98;;;19.80;99.90;;;;;;5032993;28;20081;-64
2023/08/31 10:49:10;;;;;;;3.08;0.73;;;19.80;99.90;;;;;;5032659;28;20041;-64
2023/08/31 10:51:45;;;;;;;3.10;0.90;;;19.80;99.90;;;;;;5032583;28;20042;-64
2023/08/31 10:54:22;;;;;;;3.67;0.80;;;19.60;99.90;;;;;;5032655;28;20045;-64
2023/08/31 10:57:08;;;;;;;3.25;0.80;;;19.60;99.90;;;;;;5032515;28;20053;-69
2023/08/31 10:59:45;;;;;;;1.83;0.80;;;19.60;99.90;;;;;;5033905;28;20501;-70
2023/08/31 11:02:27;;;;;;;3.08;0.80;;;19.70;99.90;;;;;;5032728;28;20060;-71
2023/08/31 11:04:54;;;;;;;4.78;0.90;;;19.90;99.90;;;;;;5032685;28;20053;-70
2023/08/31 11:07:24;;;;;;;3.50;0.90;;;19.70;99.90;;;;;;5032365;28;20049;-71
2023/08/31 11:09:50;;;;;;;4.40;0.82;;;19.40;99.90;;;;;;5032316;28;20041;-72
2023/08/31 11:12:16;;;;;;;3.33;0.90;;;19.10;99.90;;;;;;5031751;28;20134;-71
2023/08/31 11:14:42;;;;;;;3.80;0.90;;;18.70;99.90;;;;;;5049380;28;20561;-71
2023/08/31 11:17:12;;;;;;;4.90;1.30;;;18.30;99.90;;;;;;5040329;28;20057;-73
2023/08/31 11:19:38;;;;;;;3.83;1.10;;;17.90;99.90;;;;;;5035543;28;20105;-69
2023/08/31 11:22:06;;;;;;;3.90;1.00;;;17.60;99.90;;;;;;5019360;28;20491;-69
2023/08/31 11:24:33;;;;;;;5.20;1.20;;;17.60;99.90;;;;;;5035610;28;20045;-69
2023/08/31 11:27:03;;;;;;;6.38;1.20;;;17.80;99.90;;;;;;5035726;28;20056;-70
2023/08/31 11:29:29;;;;;;;4.00;1.10;;;18.00;99.90;;;;;;5035312;28;20037;-69
2023/08/31 11:31:57;;;;;;;4.20;1.10;;;18.20;99.90;;;;;;5051898;28;20037;-69
2023/08/31 11:34:29;;;;;;;6.53;1.13;;;18.60;99.90;;;;;;5053374;28;20047;-70
2023/08/31 11:36:56;;;;;;;3.80;1.10;;;18.80;99.90;;;;;;5035485;28;20496;-71
2023/08/31 11:39:23;;;;;;;5.15;1.40;;;19.20;99.90;;;;;;5035563;28;20047;-71
2023/08/31 11:41:49;;;;;;;5.50;1.20;;;19.40;99.90;;;;;;5035141;28;20044;-70
2023/08/31 11:44:16;;;;;;;3.80;1.10;;;19.70;99.90;;;;;;5018765;28;20047;-71
2023/08/31 11:46:46;;;;;;;5.13;1.27;;;19.80;99.90;;;;;;5035330;28;20090;-70
2023/08/31 11:49:27;;;;;;;5.88;1.20;;;20.00;99.90;;;;;;5051943;28;20382;-64
2023/08/31 11:51:53;;;;;;;4.80;1.10;;;20.10;99.90;;;;;;5035020;28;20037;-63
2023/08/31 11:54:19;;;;;;;6.00;1.50;;;20.20;99.90;;;;;;5035085;28;20140;-63
2023/08/31 11:56:50;;;;;;;6.97;1.30;;;20.00;99.90;;;;;;5035011;28;20052;-71
2023/08/31 11:59:17;;;;;;;5.13;1.07;;;19.80;99.90;;;;;;5019130;28;20087;-71
2023/08/31 12:01:45;;;;;;;4.53;1.10;;;19.70;99.90;;;;;;5035148;28;20044;-70
2023/08/31 12:04:25;;;;;;;5.30;1.17;;;19.50;99.90;;;;;;5019110;28;20037;-69
2023/08/31 12:07:01;;;;;;;5.72;1.27;;;19.30;99.90;;;;;;5019186;28;20056;-63
2023/08/31 12:09:28;;;;;;;5.80;1.00;;;19.30;99.90;;;;;;5020086;28;20033;-72
2023/08/31 12:11:54;;;;;;;5.05;1.20;;;19.30;99.90;;;;;;5035146;28;20079;-72
2023/08/31 12:14:25;;;;;;;5.00;1.00;;;19.30;99.90;;;;;;5002459;28;20083;-71
2023/08/31 12:16:52;;;;;;;5.50;1.15;;;19.50;99.90;;;;;;5033675;28;20057;-71
2023/08/31 12:19:18;;;;;;;4.40;1.20;;;19.60;99.90;;;;;;5052541;28;20107;-65
2023/08/31 12:21:49;;;;;;;4.32;1.02;;;19.70;99.90;;;;;;5035921;28;20489;-64
2023/08/31 12:24:16;;;;;;;4.82;1.10;;;19.60;99.90;;;;;;5056491;28;20040;-64
2023/08/31 12:26:43;;;;;;;5.50;1.05;;;19.60;99.90;;;;;;5038639;28;20049;-62
2023/08/31 12:29:09;;;;;;;4.60;1.02;;;19.40;99.90;;;;;;5038683;28;20137;-64
2023/08/31 12:31:36;;;;;;;4.55;1.08;;;19.50;99.90;;;;;;5022785;28;20118;-64
2023/08/31 12:34:06;;;;;;;4.82;1.00;;;19.60;99.90;;;;;;5056636;28;20041;-71
2023/08/31 12:36:40;;;;;;;4.20;1.05;;;19.70;99.90;;;;;;5038743;28;20053;-71
2023/08/31 12:39:09;;;;;;;3.03;0.90;;;19.70;99.90;;;;;;5038865;28;20048;-71
2023/08/31 12:41:39;;;;;;;4.13;1.02;;;19.70;99.90;;;;;;5006181;28;20043;-71
2023/08/31 12:44:06;;;;;;;3.78;1.05;;;19.70;99.90;;;;;;5038342;28;20091;-71
2023/08/31 12:46:32;;;;;;;3.92;1.10;;;19.70;99.90;;;;;;5038439;28;20059;-70
2023/08/31 12:49:00;;;;;;;3.72;0.93;;;19.60;99.90;;;;;;5056453;28;20041;-72
2023/08/31 12:51:26;;;;;;;4.82;1.17;;;19.40;99.90;;;;;;5038194;28;20048;-71